createdAt,value
2022-12-01T00:01:21.256Z,20.30
2022-12-01T00:03:48.954Z,20.02
2022-12-01T00:06:21.159Z,19.65
2022-12-01T00:09:09.266Z,19.65
2022-12-01T00:11:37.633Z,16.20
2022-12-01T00:14:05.252Z,18.20
2022-12-01T00:16:32.643Z,18.15
2022-12-01T00:18:59.376Z,19.00
2022-12-01T00:21:26.969Z,18.15
2022-12-01T00:23:56.600Z,18.13
2022-12-01T00:26:23.895Z,19.07
2022-12-01T00:28:56.007Z,18.02
2022-12-01T00:31:23.436Z,18.95
2022-12-01T00:33:50.424Z,18.42
2022-12-01T00:36:17.352Z,18.42
2022-12-01T00:38:46.182Z,18.63
2022-12-01T00:41:13.196Z,18.52
2022-12-01T00:43:40.019Z,17.20
2022-12-01T00:46:07.737Z,16.80
2022-12-01T00:48:34.961Z,16.75
2022-12-01T00:51:02.003Z,17.33
2022-12-01T00:53:28.756Z,17.58
2022-12-01T00:55:55.421Z,17.23
2022-12-01T00:58:23.094Z,16.08
2022-12-01T01:00:56.286Z,14.48
2022-12-01T01:03:23.433Z,16.43
2022-12-01T01:05:50.016Z,15.98
2022-12-01T01:08:16.751Z,16.27
2022-12-01T01:10:46.559Z,15.25
2022-12-01T01:13:14.288Z,16.58
2022-12-01T01:15:41.135Z,17.33
2022-12-01T01:18:09.588Z,17.17
2022-12-01T01:20:36.152Z,16.13
2022-12-01T01:23:02.679Z,16.95
2022-12-01T01:25:29.331Z,17.75
2022-12-01T01:27:56.026Z,17.90
2022-12-01T01:30:22.574Z,15.80
2022-12-01T01:32:49.186Z,17.33
2022-12-01T01:35:15.801Z,18.00
2022-12-01T01:37:42.423Z,16.67
2022-12-01T01:40:09.680Z,16.33
2022-12-01T01:42:36.220Z,17.48
2022-12-01T01:45:03.557Z,17.52
2022-12-01T01:47:37.496Z,18.77
2022-12-01T01:50:09.583Z,18.67
2022-12-01T01:52:41.577Z,16.63
2022-12-01T01:55:08.911Z,17.20
2022-12-01T01:57:36.331Z,19.05
2022-12-01T02:00:10.248Z,18.63
2022-12-01T02:02:44.706Z,17.35
2022-12-01T02:05:20.250Z,18.33
2022-12-01T02:07:48.084Z,16.95
2022-12-01T02:10:22.204Z,17.40
2022-12-01T02:12:58.242Z,17.88
2022-12-01T02:15:38.917Z,17.85
2022-12-01T02:18:17.509Z,17.40
2022-12-01T02:21:05.346Z,17.30
2022-12-01T02:23:37.801Z,17.83
2022-12-01T02:26:10.209Z,16.85
2022-12-01T02:28:45.673Z,17.98
2022-12-01T02:31:53.324Z,17.93
2022-12-01T02:34:29.521Z,17.55
2022-12-01T02:37:08.437Z,15.93
2022-12-01T02:39:52.195Z,15.68
2022-12-01T02:42:56.456Z,13.90
2022-12-01T02:45:37.039Z,14.93
2022-12-01T02:48:10.068Z,16.90
2022-12-01T02:50:39.436Z,16.20
2022-12-01T02:53:08.412Z,15.25
2022-12-01T02:55:35.093Z,16.38
2022-12-01T02:58:01.773Z,15.93
2022-12-01T03:00:30.320Z,16.33
2022-12-01T03:03:11.913Z,16.95
2022-12-01T03:05:48.878Z,16.55
2022-12-01T03:08:32.996Z,15.93
2022-12-01T03:11:00.388Z,15.37
2022-12-01T03:13:54.476Z,16.05
2022-12-01T03:16:36.313Z,17.17
2022-12-01T03:19:33.644Z,16.50
2022-12-01T03:22:34.260Z,17.58
2022-12-01T03:25:03.655Z,16.83
2022-12-01T03:27:35.328Z,15.80
2022-12-01T03:30:03.617Z,15.35
2022-12-01T03:32:40.844Z,13.70
2022-12-01T03:35:35.955Z,14.43
2022-12-01T03:38:30.126Z,15.13
2022-12-01T03:41:05.589Z,15.57
2022-12-01T03:43:36.669Z,14.40
2022-12-01T03:46:10.428Z,14.38
2022-12-01T03:48:38.635Z,15.75
2022-12-01T03:51:14.085Z,14.33
2022-12-01T03:53:59.164Z,16.23
2022-12-01T03:56:31.967Z,15.57
2022-12-01T03:59:01.273Z,14.57
2022-12-01T04:01:32.737Z,15.25
2022-12-01T04:04:14.679Z,16.67
2022-12-01T04:06:46.124Z,15.27
2022-12-01T04:09:13.387Z,16.15
2022-12-01T04:11:58.314Z,15.65
2022-12-01T04:14:25.069Z,14.38
2022-12-01T04:16:51.691Z,16.23
2022-12-01T04:19:18.510Z,15.85
2022-12-01T04:21:45.065Z,16.67
2022-12-01T04:24:12.926Z,15.70
2022-12-01T04:26:39.820Z,15.93
2022-12-01T04:29:08.729Z,16.10
2022-12-01T04:31:35.905Z,15.90
2022-12-01T04:34:03.231Z,19.20
2022-12-01T04:36:32.186Z,16.83
2022-12-01T04:38:58.712Z,16.50
2022-12-01T04:41:25.359Z,18.93
2022-12-01T04:43:55.768Z,16.40
2022-12-01T04:46:22.789Z,15.95
2022-12-01T04:48:49.886Z,16.42
2022-12-01T04:51:17.026Z,17.13
2022-12-01T04:53:43.700Z,16.43
2022-12-01T04:56:10.721Z,18.00
2022-12-01T04:58:37.972Z,16.63
2022-12-01T05:01:10.220Z,16.40
2022-12-01T05:03:41.995Z,16.75
2022-12-01T05:06:11.960Z,14.97
2022-12-01T05:08:38.660Z,16.25
2022-12-01T05:11:07.881Z,15.52
2022-12-01T05:13:37.288Z,16.25
2022-12-01T05:16:06.231Z,16.83
2022-12-01T05:18:33.634Z,16.50
2022-12-01T05:21:00.586Z,16.27
2022-12-01T05:23:29.239Z,15.77
2022-12-01T05:25:56.509Z,14.80
2022-12-01T05:28:24.829Z,14.88
2022-12-01T05:30:51.574Z,15.93
2022-12-01T05:33:18.063Z,16.23
2022-12-01T05:35:45.817Z,16.50
2022-12-01T05:38:12.479Z,16.98
2022-12-01T05:40:39.105Z,17.65
2022-12-01T05:43:06.142Z,16.13
2022-12-01T05:45:33.771Z,15.50
2022-12-01T05:48:01.570Z,15.77
2022-12-01T05:50:29.924Z,17.77
2022-12-01T05:52:56.552Z,17.42
2022-12-01T05:55:23.187Z,16.60
2022-12-01T05:57:49.832Z,16.83
2022-12-01T06:00:17.007Z,17.95
2022-12-01T06:02:43.724Z,17.05
2022-12-01T06:05:10.363Z,18.75
2022-12-01T06:07:37.002Z,18.43
2022-12-01T06:10:04.205Z,17.70
2022-12-01T06:12:30.975Z,19.40
2022-12-01T06:14:57.544Z,16.67
2022-12-01T06:17:24.155Z,17.17
2022-12-01T06:19:51.017Z,19.53
2022-12-01T06:22:17.840Z,19.20
2022-12-01T06:24:44.389Z,17.60
2022-12-01T06:27:10.990Z,19.85
2022-12-01T06:29:41.913Z,19.33
2022-12-01T06:32:09.459Z,17.87
2022-12-01T06:34:35.961Z,18.35
2022-12-01T06:37:02.690Z,19.10
2022-12-01T06:39:29.349Z,18.80
2022-12-01T06:41:55.952Z,20.30
2022-12-01T06:44:22.465Z,20.10
2022-12-01T06:46:52.787Z,20.33
2022-12-01T06:49:20.201Z,19.30
2022-12-01T06:51:46.838Z,19.80
2022-12-01T06:54:14.369Z,20.38
2022-12-01T06:56:42.855Z,20.10
2022-12-01T06:59:10.097Z,20.38
2022-12-01T07:01:37.071Z,19.70
2022-12-01T07:04:03.665Z,20.48
2022-12-01T07:06:30.862Z,21.92
2022-12-01T07:08:57.430Z,20.77
2022-12-01T07:11:24.035Z,22.20
2022-12-01T07:13:55.702Z,21.10
2022-12-01T07:16:23.185Z,22.38
2022-12-01T07:18:50.816Z,21.77
2022-12-01T07:21:17.376Z,19.37
2022-12-01T07:23:43.961Z,22.23
2022-12-01T07:26:15.596Z,21.83
2022-12-01T07:28:43.250Z,21.92
2022-12-01T07:31:12.591Z,23.85
2022-12-01T07:33:39.712Z,22.13
2022-12-01T07:36:07.302Z,21.88
2022-12-01T07:38:35.463Z,23.17
2022-12-01T07:41:14.132Z,21.77
2022-12-01T07:43:41.381Z,22.23
2022-12-01T07:46:10.436Z,23.87
2022-12-01T07:48:39.055Z,22.80
2022-12-01T07:51:10.122Z,22.77
2022-12-01T07:53:36.799Z,24.90
2022-12-01T07:56:08.564Z,23.55
2022-12-01T07:58:36.246Z,24.53
2022-12-01T08:01:08.081Z,24.70
2022-12-01T08:03:35.526Z,25.40
2022-12-01T08:06:03.527Z,25.58
2022-12-01T08:08:33.986Z,25.08
2022-12-01T08:11:02.378Z,24.43
2022-12-01T08:13:29.536Z,26.15
2022-12-01T08:15:56.426Z,24.92
2022-12-01T08:18:23.471Z,25.75
2022-12-01T08:20:50.741Z,25.33
2022-12-01T08:23:17.278Z,26.33
2022-12-01T08:25:43.875Z,26.30
2022-12-01T08:28:10.490Z,23.23
2022-12-01T08:30:37.088Z,24.85
2022-12-01T08:33:03.855Z,24.33
2022-12-01T08:35:30.495Z,25.60
2022-12-01T08:37:56.945Z,24.70
2022-12-01T08:40:23.636Z,27.15
2022-12-01T08:42:52.596Z,23.25
2022-12-01T08:45:19.806Z,26.58
2022-12-01T08:47:47.518Z,26.80
2022-12-01T08:50:14.259Z,26.38
2022-12-01T08:52:41.000Z,26.02
2022-12-01T08:55:08.459Z,27.13
2022-12-01T08:57:35.439Z,25.20
2022-12-01T09:00:02.461Z,24.07
2022-12-01T09:02:29.208Z,23.10
2022-12-01T09:04:55.916Z,25.20
2022-12-01T09:07:26.382Z,25.05
2022-12-01T09:09:53.312Z,23.05
2022-12-01T09:12:19.993Z,23.07
2022-12-01T09:14:49.671Z,23.35
2022-12-01T09:17:17.506Z,23.67
2022-12-01T09:19:44.717Z,23.90
2022-12-01T09:22:12.020Z,23.20
2022-12-01T09:24:39.056Z,24.07
2022-12-01T09:27:06.167Z,23.23
2022-12-01T09:29:32.801Z,21.02
2022-12-01T09:32:00.286Z,22.85
2022-12-01T09:34:27.846Z,23.48
2022-12-01T09:36:56.685Z,22.07
2022-12-01T09:39:23.750Z,22.88
2022-12-01T09:41:57.572Z,22.15
2022-12-01T09:44:39.025Z,22.52
2022-12-01T09:47:12.955Z,22.45
2022-12-01T09:50:05.264Z,21.77
2022-12-01T09:52:38.407Z,21.15
2022-12-01T09:55:11.945Z,21.80
2022-12-01T09:57:40.325Z,22.33
2022-12-01T10:00:18.056Z,21.98
2022-12-01T10:02:58.748Z,19.93
2022-12-01T10:05:31.593Z,20.90
2022-12-01T10:08:02.190Z,21.67
2022-12-01T10:10:30.720Z,18.60
2022-12-01T10:12:57.725Z,20.27
2022-12-01T10:15:52.171Z,20.97
2022-12-01T10:18:47.466Z,18.83
2022-12-01T10:21:33.026Z,17.70
2022-12-01T10:24:08.659Z,18.38
2022-12-01T10:26:45.431Z,19.50
2022-12-01T10:29:19.766Z,19.20
2022-12-01T10:31:54.378Z,19.02
2022-12-01T10:34:24.940Z,18.88
2022-12-01T10:36:51.557Z,17.85
2022-12-01T10:39:29.480Z,18.55
2022-12-01T10:42:04.361Z,17.83
2022-12-01T10:44:31.045Z,18.40
2022-12-01T10:46:57.694Z,18.30
2022-12-01T10:49:37.525Z,19.10
2022-12-01T10:52:05.122Z,18.42
2022-12-01T10:54:41.285Z,16.87
2022-12-01T10:57:16.793Z,18.38
2022-12-01T11:00:04.295Z,16.98
2022-12-01T11:02:32.095Z,17.90
2022-12-01T11:05:02.716Z,17.80
2022-12-01T11:07:33.511Z,18.70
2022-12-01T11:10:22.209Z,17.65
2022-12-01T11:13:16.651Z,18.13
2022-12-01T11:16:29.740Z,18.52
2022-12-01T11:19:10.140Z,17.90
2022-12-01T11:21:54.438Z,18.73
2022-12-01T11:24:28.881Z,18.05
2022-12-01T11:26:58.405Z,19.63
2022-12-01T11:29:30.777Z,19.20
2022-12-01T11:31:58.301Z,17.95
2022-12-01T11:34:31.679Z,17.80
2022-12-01T11:37:02.467Z,19.33
2022-12-01T11:39:33.353Z,20.10
2022-12-01T11:42:04.453Z,19.15
2022-12-01T11:44:50.924Z,19.08
2022-12-01T11:47:26.329Z,18.97
2022-12-01T11:49:59.130Z,18.70
2022-12-01T11:52:27.329Z,19.17
2022-12-01T11:55:11.110Z,18.25
2022-12-01T11:57:40.939Z,19.13
2022-12-01T12:00:14.942Z,18.40
2022-12-01T12:02:48.985Z,18.55
2022-12-01T12:05:39.586Z,18.65
2022-12-01T12:08:28.226Z,19.00
2022-12-01T12:11:12.957Z,18.40
2022-12-01T12:13:53.552Z,18.70
2022-12-01T12:16:25.314Z,18.73
2022-12-01T12:19:11.938Z,18.80
2022-12-01T12:22:05.645Z,19.98
2022-12-01T12:24:50.996Z,18.48
2022-12-01T12:27:39.330Z,19.10
2022-12-01T12:30:13.174Z,18.50
2022-12-01T12:32:46.102Z,19.10
2022-12-01T12:35:34.188Z,19.17
2022-12-01T12:38:05.052Z,18.65
2022-12-01T12:40:47.171Z,19.83
2022-12-01T12:43:43.373Z,16.90
2022-12-01T12:46:12.300Z,19.38
2022-12-01T12:49:19.631Z,19.40
2022-12-01T12:52:07.809Z,18.20
2022-12-01T12:54:59.342Z,18.73
2022-12-01T12:57:32.937Z,19.42
2022-12-01T13:00:02.536Z,19.27
2022-12-01T13:02:39.202Z,19.40
2022-12-01T13:05:24.743Z,18.80
2022-12-01T13:08:12.922Z,19.37
2022-12-01T13:10:54.555Z,19.10
2022-12-01T13:13:55.455Z,20.10
2022-12-01T13:16:32.835Z,19.30
2022-12-01T13:19:05.909Z,19.13
2022-12-01T13:21:39.520Z,19.43
2022-12-01T13:24:07.701Z,19.40
2022-12-01T13:26:37.547Z,18.92
2022-12-01T13:29:07.506Z,18.88
2022-12-01T13:31:54.974Z,19.48
2022-12-01T13:34:26.658Z,18.40
2022-12-01T13:36:55.400Z,19.98
2022-12-01T13:39:35.652Z,19.50
2022-12-01T13:42:06.828Z,20.13
2022-12-01T13:44:43.054Z,19.65
2022-12-01T13:47:09.688Z,18.67
2022-12-01T13:49:44.171Z,19.02
2022-12-01T13:52:22.984Z,18.13
2022-12-01T13:55:07.849Z,19.33
2022-12-01T13:57:37.666Z,19.27
2022-12-01T14:00:23.805Z,18.37
2022-12-01T14:03:12.208Z,18.17
2022-12-01T14:05:53.731Z,18.70
2022-12-01T14:08:33.396Z,19.70
2022-12-01T14:11:01.637Z,18.70
2022-12-01T14:13:28.989Z,20.23
2022-12-01T14:16:03.681Z,18.58
2022-12-01T14:18:42.751Z,19.08
2022-12-01T14:21:11.362Z,19.10
2022-12-01T14:24:00.795Z,18.65
2022-12-01T14:26:30.244Z,17.70
2022-12-01T14:28:59.708Z,18.70
2022-12-01T14:31:32.289Z,19.50
2022-12-01T14:34:00.936Z,19.50
2022-12-01T14:36:41.201Z,18.15
2022-12-01T14:39:13.450Z,16.87
2022-12-01T14:41:44.980Z,19.23
2022-12-01T14:44:29.231Z,18.23
2022-12-01T14:47:23.533Z,18.20
2022-12-01T14:50:02.269Z,18.98
2022-12-01T14:52:28.879Z,19.40
2022-12-01T14:54:59.065Z,18.65
2022-12-01T14:57:34.155Z,19.33
2022-12-01T15:00:16.530Z,17.77
2022-12-01T15:03:03.118Z,18.70
2022-12-01T15:05:32.495Z,18.20
2022-12-01T15:08:40.281Z,18.80
2022-12-01T15:11:06.447Z,19.00
2022-12-01T15:13:38.821Z,20.58
2022-12-01T15:16:15.445Z,20.15
2022-12-01T15:18:42.481Z,21.30
2022-12-01T15:21:18.068Z,20.35
2022-12-01T15:24:00.678Z,19.60
2022-12-01T15:26:32.472Z,18.75
2022-12-01T15:29:12.216Z,19.58
2022-12-01T15:31:39.264Z,18.80
2022-12-01T15:34:08.890Z,18.77
2022-12-01T15:36:37.148Z,18.98
2022-12-01T15:39:07.174Z,18.98
2022-12-01T15:41:36.354Z,19.55
2022-12-01T15:44:05.347Z,20.57
2022-12-01T15:46:36.988Z,19.77
2022-12-01T15:49:19.110Z,18.83
2022-12-01T15:51:48.270Z,19.35
2022-12-01T15:54:20.647Z,19.73
2022-12-01T15:56:52.034Z,19.80
2022-12-01T15:59:32.996Z,18.85
2022-12-01T16:02:04.494Z,19.05
2022-12-01T16:04:32.308Z,18.65
2022-12-01T16:07:06.569Z,21.38
2022-12-01T16:09:55.231Z,22.93
2022-12-01T16:12:27.906Z,22.02
2022-12-01T16:15:00.435Z,20.63
2022-12-01T16:17:29.505Z,21.65
2022-12-01T16:20:20.262Z,20.60
2022-12-01T16:22:50.241Z,19.63
2022-12-01T16:25:27.995Z,20.67
2022-12-01T16:27:56.877Z,22.83
2022-12-01T16:30:26.206Z,18.50
2022-12-01T16:33:02.349Z,19.50
2022-12-01T16:35:31.405Z,18.90
2022-12-01T16:37:58.547Z,19.33
2022-12-01T16:40:25.725Z,19.15
2022-12-01T16:42:52.535Z,19.73
2022-12-01T16:45:19.671Z,19.88
2022-12-01T16:47:48.387Z,19.50
2022-12-01T16:50:16.893Z,20.25
2022-12-01T16:52:45.263Z,18.75
2022-12-01T16:55:36.578Z,17.52
2022-12-01T16:58:03.456Z,19.10
2022-12-01T17:00:30.261Z,18.83
2022-12-01T17:02:57.631Z,19.38
2022-12-01T17:05:24.456Z,18.73
2022-12-01T17:07:51.489Z,16.80
2022-12-01T17:10:18.186Z,18.75
2022-12-01T17:12:44.685Z,18.27
2022-12-01T17:15:11.439Z,18.80
2022-12-01T17:17:38.721Z,17.15
2022-12-01T17:20:06.583Z,18.90
2022-12-01T17:22:34.610Z,20.23
2022-12-01T17:25:02.295Z,19.87
2022-12-01T17:27:31.380Z,19.92
2022-12-01T17:29:59.374Z,17.23
2022-12-01T17:32:26.892Z,18.67
2022-12-01T17:34:53.714Z,17.67
2022-12-01T17:37:21.529Z,17.47
2022-12-01T17:39:49.357Z,17.60
2022-12-01T17:42:16.458Z,17.63
2022-12-01T17:44:43.076Z,19.70
2022-12-01T17:47:09.725Z,19.17
2022-12-01T17:49:36.573Z,19.83
2022-12-01T17:52:06.867Z,20.85
2022-12-01T17:54:33.741Z,21.85
2022-12-01T17:57:00.228Z,19.17
2022-12-01T17:59:26.757Z,19.83
2022-12-01T18:01:53.405Z,18.83
2022-12-01T18:04:20.081Z,19.85
2022-12-01T18:06:52.271Z,20.17
2022-12-01T18:09:20.541Z,20.20
2022-12-01T18:11:47.134Z,20.38
2022-12-01T18:14:17.561Z,20.60
2022-12-01T18:16:45.264Z,20.52
2022-12-01T18:19:12.224Z,21.02
2022-12-01T18:21:39.289Z,18.90
2022-12-01T18:24:08.777Z,19.65
2022-12-01T18:26:36.948Z,18.97
2022-12-01T18:29:07.669Z,18.95
2022-12-01T18:31:35.218Z,18.73
2022-12-01T18:34:03.314Z,18.60
2022-12-01T18:36:32.095Z,17.85
2022-12-01T18:39:00.776Z,17.53
2022-12-01T18:41:28.004Z,18.27
2022-12-01T18:43:54.604Z,19.00
2022-12-01T18:46:21.999Z,19.75
2022-12-01T18:48:51.061Z,19.60
2022-12-01T18:51:18.585Z,18.80
2022-12-01T18:53:45.484Z,19.95
2022-12-01T18:56:15.178Z,22.02
2022-12-01T18:58:42.790Z,21.17
2022-12-01T19:01:24.125Z,20.42
2022-12-01T19:03:51.231Z,18.90
2022-12-01T19:06:18.563Z,21.88
2022-12-01T19:08:45.748Z,21.83
2022-12-01T19:11:12.576Z,21.80
2022-12-01T19:13:39.286Z,22.58
2022-12-01T19:16:12.838Z,22.27
2022-12-01T19:18:39.749Z,22.55
2022-12-01T19:21:09.512Z,21.98
2022-12-01T19:23:36.642Z,19.00
2022-12-01T19:26:08.519Z,19.73
2022-12-01T19:28:36.273Z,19.33
2022-12-01T19:31:06.763Z,18.13
2022-12-01T19:33:33.651Z,18.38
2022-12-01T19:36:08.602Z,18.30
2022-12-01T19:38:35.419Z,18.92
2022-12-01T19:41:03.408Z,17.60
2022-12-01T19:43:29.985Z,18.73
2022-12-01T19:45:56.638Z,18.65
2022-12-01T19:48:23.239Z,18.75
2022-12-01T19:50:49.771Z,18.92
2022-12-01T19:53:16.334Z,19.17
2022-12-01T19:55:42.919Z,19.50
2022-12-01T19:58:09.482Z,19.27
2022-12-01T20:00:36.229Z,19.40
2022-12-01T20:03:03.824Z,19.17
2022-12-01T20:05:32.687Z,17.87
2022-12-01T20:07:59.299Z,18.80
2022-12-01T20:10:25.969Z,19.17
2022-12-01T20:12:52.779Z,19.52
2022-12-01T20:15:19.496Z,21.13
2022-12-01T20:17:46.111Z,20.27
2022-12-01T20:20:13.113Z,20.75
2022-12-01T20:22:39.818Z,22.30
2022-12-01T20:25:06.932Z,21.20
2022-12-01T20:27:33.514Z,21.02
2022-12-01T20:30:00.393Z,21.47
2022-12-01T20:32:27.334Z,20.80
2022-12-01T20:34:54.110Z,21.92
2022-12-01T20:37:20.651Z,21.90
2022-12-01T20:39:47.380Z,21.90
2022-12-01T20:42:13.961Z,18.87
2022-12-01T20:44:40.928Z,18.13
2022-12-01T20:47:07.517Z,18.38
2022-12-01T20:49:34.485Z,17.63
2022-12-01T20:52:01.123Z,17.42
2022-12-01T20:54:29.498Z,17.10
2022-12-01T20:56:57.585Z,16.77
2022-12-01T20:59:24.652Z,17.23
2022-12-01T21:01:51.221Z,17.33
2022-12-01T21:04:18.025Z,16.00
2022-12-01T21:06:44.654Z,17.10
2022-12-01T21:09:12.959Z,17.88
2022-12-01T21:12:04.920Z,17.23
2022-12-01T21:14:42.650Z,15.98
2022-12-01T21:17:29.734Z,17.48
2022-12-01T21:20:11.537Z,17.23
2022-12-01T21:22:38.365Z,16.48
2022-12-01T21:25:18.641Z,17.67
2022-12-01T21:27:49.217Z,17.60
2022-12-01T21:30:21.847Z,16.75
2022-12-01T21:32:49.639Z,17.13
2022-12-01T21:35:27.550Z,16.85
2022-12-01T21:38:01.591Z,17.77
2022-12-01T21:40:28.698Z,17.05
2022-12-01T21:43:01.311Z,16.50
2022-12-01T21:45:29.869Z,16.83
2022-12-01T21:48:19.653Z,16.73
2022-12-01T21:50:50.833Z,15.73
2022-12-01T21:53:21.200Z,16.50
2022-12-01T21:55:49.221Z,16.35
2022-12-01T21:58:21.442Z,16.47
2022-12-01T22:00:48.085Z,16.73
2022-12-01T22:03:32.797Z,17.33
2022-12-01T22:06:29.778Z,16.30
2022-12-01T22:09:02.274Z,15.68
2022-12-01T22:11:30.575Z,17.20
2022-12-01T22:14:12.752Z,15.55
2022-12-01T22:17:06.520Z,15.82
2022-12-01T22:19:34.210Z,15.18
2022-12-01T22:22:22.751Z,16.48
2022-12-01T22:24:59.488Z,15.30
2022-12-01T22:27:31.122Z,15.85
2022-12-01T22:30:23.714Z,16.20
2022-12-01T22:32:59.377Z,16.08
2022-12-01T22:35:34.680Z,15.25
2022-12-01T22:38:08.533Z,15.73
2022-12-01T22:40:56.610Z,15.88
2022-12-01T22:43:54.851Z,14.98
2022-12-01T22:46:37.436Z,15.63
2022-12-01T22:49:10.338Z,15.30
2022-12-01T22:51:42.256Z,15.37
2022-12-01T22:54:12.125Z,15.65
2022-12-01T22:56:41.813Z,15.65
2022-12-01T22:59:21.610Z,16.55
2022-12-01T23:01:55.236Z,16.48
2022-12-01T23:04:41.369Z,15.63
2022-12-01T23:07:09.575Z,16.52
2022-12-01T23:09:40.764Z,15.93
2022-12-01T23:12:13.336Z,15.65
2022-12-01T23:14:44.603Z,17.05
2022-12-01T23:17:32.701Z,15.77
2022-12-01T23:20:25.894Z,16.13
2022-12-01T23:22:54.497Z,15.25
2022-12-01T23:25:21.272Z,14.77
2022-12-01T23:27:50.459Z,14.55
2022-12-01T23:30:18.831Z,14.70
2022-12-01T23:32:47.863Z,15.63
2022-12-01T23:35:16.998Z,15.63
2022-12-01T23:37:46.250Z,15.20
2022-12-01T23:40:30.471Z,15.75
2022-12-01T23:43:25.367Z,15.37
2022-12-01T23:46:10.976Z,14.77
2022-12-01T23:48:42.178Z,15.18
2022-12-01T23:51:16.890Z,14.48
2022-12-01T23:53:43.914Z,15.05
2022-12-01T23:56:15.885Z,14.43
2022-12-01T23:58:44.423Z,15.90
